createdAt,value
2018-07-04T00:02:32.507Z,14.87
2018-07-04T00:05:11.972Z,14.67
2018-07-04T00:07:51.558Z,13.30
2018-07-04T00:10:31.046Z,12.33
2018-07-04T00:13:10.604Z,12.43
2018-07-04T00:15:50.054Z,12.50
2018-07-04T00:18:29.687Z,13.73
2018-07-04T00:21:09.130Z,14.20
2018-07-04T00:23:48.607Z,13.47
2018-07-04T00:26:28.167Z,12.60
2018-07-04T00:29:07.694Z,12.77
2018-07-04T00:31:47.122Z,13.63
2018-07-04T00:34:26.607Z,12.80
2018-07-04T00:37:06.056Z,12.37
2018-07-04T00:39:38.905Z,13.40
2018-07-04T00:42:18.386Z,12.53
2018-07-04T00:44:57.966Z,12.87
2018-07-04T00:47:37.539Z,12.53
2018-07-04T00:50:17.055Z,13.13
2018-07-04T00:52:56.498Z,12.93
2018-07-04T00:55:36.015Z,12.20
2018-07-04T00:58:15.387Z,13.07
2018-07-04T01:00:54.793Z,12.37
2018-07-04T01:03:34.419Z,13.13
2018-07-04T01:06:13.898Z,13.33
2018-07-04T01:08:53.426Z,12.90
2018-07-04T01:11:32.911Z,13.43
2018-07-04T01:14:12.599Z,14.47
2018-07-04T01:16:52.043Z,13.80
2018-07-04T01:19:31.551Z,14.40
2018-07-04T01:22:11.151Z,13.93
2018-07-04T01:24:51.014Z,14.70
2018-07-04T01:27:30.762Z,16.00
2018-07-04T01:30:10.282Z,13.20
2018-07-04T01:32:49.839Z,13.87
2018-07-04T01:35:29.274Z,14.07
2018-07-04T01:38:08.775Z,14.13
2018-07-04T01:40:48.229Z,15.20
2018-07-04T01:43:27.739Z,15.37
2018-07-04T01:46:07.156Z,14.70
2018-07-04T01:48:46.758Z,14.13
2018-07-04T01:51:26.421Z,14.60
2018-07-04T01:54:05.906Z,14.80
2018-07-04T01:56:45.430Z,14.20
2018-07-04T01:59:24.914Z,15.37
2018-07-04T02:02:04.447Z,13.90
2018-07-04T02:04:43.991Z,14.20
2018-07-04T02:07:23.576Z,13.83
2018-07-04T02:10:03.082Z,14.67
2018-07-04T02:12:42.579Z,13.67
2018-07-04T02:15:22.026Z,14.67
2018-07-04T02:18:01.463Z,14.20
2018-07-04T02:20:40.982Z,14.67
2018-07-04T02:23:20.422Z,15.00
2018-07-04T02:25:59.902Z,14.20
2018-07-04T02:28:39.366Z,14.23
2018-07-04T02:35:01.965Z,13.97
2018-07-04T02:37:42.860Z,14.57
2018-07-04T02:40:22.711Z,14.47
2018-07-04T02:43:02.239Z,14.50
2018-07-04T02:45:41.788Z,14.57
2018-07-04T02:48:21.482Z,13.80
2018-07-04T02:51:00.782Z,14.77
2018-07-04T02:53:40.330Z,14.93
2018-07-04T02:56:19.843Z,14.00
2018-07-04T02:58:59.317Z,14.73
2018-07-04T03:01:38.795Z,15.50
2018-07-04T03:04:18.307Z,15.10
2018-07-04T03:06:57.895Z,15.67
2018-07-04T03:09:37.558Z,15.07
2018-07-04T03:12:17.054Z,14.77
2018-07-04T03:14:56.683Z,15.43
2018-07-04T03:17:36.110Z,15.17
2018-07-04T03:20:15.718Z,15.77
2018-07-04T03:22:55.123Z,15.90
2018-07-04T03:25:34.671Z,16.70
2018-07-04T03:28:14.226Z,16.37
2018-07-04T03:30:53.704Z,14.33
2018-07-04T03:33:33.273Z,16.10
2018-07-04T03:36:12.827Z,15.60
2018-07-04T03:38:52.376Z,15.80
2018-07-04T03:41:31.887Z,14.73
2018-07-04T03:44:11.448Z,14.97
2018-07-04T03:46:50.989Z,15.33
2018-07-04T03:49:30.695Z,15.30
2018-07-04T03:52:10.173Z,16.47
2018-07-04T03:54:49.651Z,16.93
2018-07-04T03:57:29.123Z,16.00
2018-07-04T04:00:08.707Z,13.50
2018-07-04T04:02:48.142Z,16.23
2018-07-04T04:05:27.590Z,18.90
2018-07-04T04:08:07.035Z,20.37
2018-07-04T04:10:46.567Z,20.83
2018-07-04T04:13:26.128Z,18.40
2018-07-04T04:16:05.586Z,18.47
2018-07-04T04:18:45.059Z,16.17
2018-07-04T04:21:24.471Z,15.80
2018-07-04T04:24:04.096Z,15.30
2018-07-04T04:26:43.598Z,15.13
2018-07-04T04:29:23.079Z,14.60
2018-07-04T04:32:02.632Z,15.47
2018-07-04T04:34:42.059Z,15.60
2018-07-04T04:37:21.507Z,14.77
2018-07-04T04:40:01.071Z,15.40
2018-07-04T04:42:40.641Z,13.60
2018-07-04T04:45:20.022Z,13.77
2018-07-04T04:47:59.708Z,15.17
2018-07-04T04:50:39.131Z,13.03
2018-07-04T04:53:18.635Z,13.87
2018-07-04T04:55:58.117Z,12.70
2018-07-04T04:58:37.746Z,13.40
2018-07-04T05:01:17.224Z,12.30
2018-07-04T05:03:56.640Z,13.60
2018-07-04T05:06:36.108Z,13.57
2018-07-04T05:09:15.567Z,13.17
2018-07-04T05:11:55.087Z,13.23
2018-07-04T05:14:34.600Z,13.10
2018-07-04T05:17:14.128Z,14.43
2018-07-04T05:19:53.554Z,13.20
2018-07-04T05:22:33.124Z,12.90
2018-07-04T05:25:12.722Z,14.00
2018-07-04T05:27:52.247Z,15.00
2018-07-04T05:30:31.647Z,14.87
2018-07-04T05:33:11.043Z,14.00
2018-07-04T05:35:50.404Z,13.90
2018-07-04T05:38:29.839Z,13.17
2018-07-04T05:41:09.331Z,12.73
2018-07-04T05:43:48.740Z,14.53
2018-07-04T05:46:28.322Z,14.83
2018-07-04T05:49:07.907Z,14.97
2018-07-04T05:51:47.381Z,14.93
2018-07-04T05:54:26.967Z,15.03
2018-07-04T05:57:06.335Z,15.97
2018-07-04T05:59:45.848Z,17.57
2018-07-04T06:02:25.334Z,15.33
2018-07-04T06:05:04.819Z,15.10
2018-07-04T06:07:44.343Z,15.60
2018-07-04T06:10:23.655Z,14.87
2018-07-04T06:13:03.214Z,15.47
2018-07-04T06:15:42.610Z,13.10
2018-07-04T06:18:22.066Z,13.23
2018-07-04T06:21:01.588Z,14.63
2018-07-04T06:23:41.068Z,13.67
2018-07-04T06:26:20.899Z,14.90
2018-07-04T06:29:00.428Z,13.40
2018-07-04T06:31:39.934Z,14.80
2018-07-04T06:34:19.487Z,13.13
2018-07-04T06:36:59.095Z,13.27
2018-07-04T06:39:26.226Z,12.47
2018-07-04T06:41:53.371Z,13.10
2018-07-04T06:44:20.500Z,13.00
2018-07-04T06:46:47.619Z,12.67
2018-07-04T06:49:14.745Z,13.17
2018-07-04T06:51:41.859Z,13.37
2018-07-04T06:54:08.986Z,13.83
2018-07-04T06:56:36.118Z,14.63
2018-07-04T06:59:03.243Z,16.83
2018-07-04T07:01:30.359Z,17.53
2018-07-04T07:04:09.958Z,17.37
2018-07-04T07:06:49.416Z,15.47
2018-07-04T07:09:28.970Z,15.97
2018-07-04T07:12:08.367Z,15.10
2018-07-04T07:14:47.698Z,15.67
2018-07-04T07:17:27.233Z,15.07
2018-07-04T07:20:06.800Z,14.60
2018-07-04T07:22:46.251Z,15.77
2018-07-04T07:25:25.696Z,14.47
2018-07-04T07:28:05.062Z,15.77
2018-07-04T07:30:44.507Z,13.93
2018-07-04T07:33:24.043Z,14.27
2018-07-04T07:36:34.248Z,13.40
2018-07-04T07:39:13.839Z,13.10
2018-07-04T07:41:53.391Z,13.10
2018-07-04T07:44:33.126Z,14.63
2018-07-04T07:47:12.686Z,12.70
2018-07-04T07:49:52.652Z,15.00
2018-07-04T07:52:32.047Z,12.77
2018-07-04T07:55:11.910Z,12.40
2018-07-04T07:57:51.507Z,12.80
2018-07-04T08:00:31.226Z,14.40
2018-07-04T08:03:11.216Z,13.23
2018-07-04T08:05:50.778Z,13.90
2018-07-04T08:08:30.394Z,12.73
2018-07-04T08:11:09.922Z,12.00
2018-07-04T08:13:49.395Z,11.03
2018-07-04T08:16:28.852Z,12.67
2018-07-04T08:19:08.342Z,12.47
2018-07-04T08:21:47.859Z,11.37
2018-07-04T08:24:27.327Z,13.10
2018-07-04T08:27:06.739Z,10.97
2018-07-04T08:29:46.106Z,11.13
2018-07-04T08:32:25.697Z,12.13
2018-07-04T08:35:05.136Z,10.53
2018-07-04T08:37:44.580Z,12.30
2018-07-04T08:40:24.055Z,12.00
2018-07-04T08:43:03.703Z,12.07
2018-07-04T08:45:43.256Z,11.33
2018-07-04T08:48:22.872Z,11.87
2018-07-04T08:51:02.307Z,12.00
2018-07-04T08:53:41.847Z,11.53
2018-07-04T08:56:21.538Z,12.40
2018-07-04T08:59:00.962Z,11.17
2018-07-04T09:01:40.441Z,12.00
2018-07-04T09:04:19.951Z,13.80
2018-07-04T09:06:59.466Z,12.50
2018-07-04T09:09:39.910Z,11.40
2018-07-04T09:12:19.503Z,12.40
2018-07-04T09:14:59.050Z,11.20
2018-07-04T09:17:38.618Z,12.30
2018-07-04T09:20:18.043Z,10.83
2018-07-04T09:22:57.635Z,11.53
2018-07-04T09:25:37.074Z,11.40
2018-07-04T09:28:16.394Z,10.43
2018-07-04T09:30:55.754Z,11.57
2018-07-04T09:33:35.391Z,12.03
2018-07-04T09:36:14.847Z,11.63
2018-07-04T09:38:54.724Z,12.90
2018-07-04T09:41:34.256Z,12.60
2018-07-04T09:44:13.712Z,11.23
2018-07-04T09:46:53.264Z,11.73
2018-07-04T09:49:32.861Z,11.40
2018-07-04T09:52:12.207Z,11.07
2018-07-04T09:54:51.843Z,11.80
2018-07-04T09:57:31.305Z,11.80
2018-07-04T10:00:10.867Z,11.00
2018-07-04T10:02:50.290Z,12.00
2018-07-04T10:05:29.751Z,12.10
2018-07-04T10:08:09.123Z,11.10
2018-07-04T10:10:48.476Z,10.57
2018-07-04T10:13:27.979Z,12.03
2018-07-04T10:16:07.484Z,14.63
2018-07-04T10:18:46.990Z,14.10
2018-07-04T10:21:26.541Z,13.97
2018-07-04T10:24:06.081Z,12.07
2018-07-04T10:26:45.751Z,14.80
2018-07-04T10:29:25.376Z,13.10
2018-07-04T10:32:04.855Z,14.90
2018-07-04T10:34:44.471Z,14.03
2018-07-04T10:37:24.030Z,15.30
2018-07-04T10:40:03.669Z,19.53
2018-07-04T10:42:43.184Z,27.53
2018-07-04T10:45:22.683Z,30.67
2018-07-04T10:48:02.242Z,21.63
2018-07-04T10:50:41.784Z,23.47
2018-07-04T10:53:21.459Z,25.60
2018-07-04T10:56:01.117Z,23.63
2018-07-04T10:58:40.759Z,24.67
2018-07-04T11:01:21.106Z,26.57
2018-07-04T11:04:00.871Z,22.83
2018-07-04T11:06:40.422Z,26.73
2018-07-04T11:09:20.054Z,27.93
2018-07-04T11:11:59.460Z,29.37
2018-07-04T11:14:38.998Z,35.10
2018-07-04T11:17:18.573Z,38.63
2018-07-04T11:19:58.056Z,30.30
2018-07-04T11:22:37.535Z,31.20
2018-07-04T11:25:16.987Z,29.47
2018-07-04T11:27:56.742Z,34.60
2018-07-04T11:30:36.298Z,36.67
2018-07-04T11:33:15.976Z,36.43
2018-07-04T11:35:55.459Z,37.73
2018-07-04T11:38:34.908Z,36.03
2018-07-04T11:41:14.435Z,31.43
2018-07-04T11:43:53.895Z,33.80
2018-07-04T11:46:21.038Z,37.50
2018-07-04T11:48:48.206Z,33.20
2018-07-04T11:51:15.356Z,39.83
2018-07-04T11:53:42.493Z,38.50
2018-07-04T11:56:09.627Z,32.60
2018-07-04T11:58:36.761Z,29.30
2018-07-04T12:01:03.908Z,30.30
2018-07-04T12:03:31.038Z,30.27
2018-07-04T12:06:10.539Z,29.90
2018-07-04T12:08:37.675Z,28.40
2018-07-04T12:11:04.804Z,27.40
2018-07-04T12:13:31.954Z,26.03
2018-07-04T12:15:59.063Z,29.27
2018-07-04T12:18:26.192Z,27.83
2018-07-04T12:20:53.340Z,29.30
2018-07-04T12:23:20.486Z,28.23
2018-07-04T12:25:47.661Z,26.57
2018-07-04T12:28:14.834Z,26.53
2018-07-04T12:30:41.977Z,27.20
2018-07-04T12:33:09.098Z,27.40
2018-07-04T12:35:36.236Z,27.90
2018-07-04T12:38:03.383Z,28.03
2018-07-04T12:40:30.557Z,26.37
2018-07-04T12:42:57.658Z,25.77
2018-07-04T12:45:24.807Z,23.23
2018-07-04T12:47:51.925Z,22.20
2018-07-04T12:50:29.879Z,22.57
2018-07-04T12:52:56.999Z,27.97
2018-07-04T12:55:37.767Z,23.30
2018-07-04T12:58:18.395Z,24.37
2018-07-04T13:00:57.795Z,23.43
2018-07-04T13:03:37.504Z,17.10
2018-07-04T13:06:17.378Z,16.80
2018-07-04T13:08:57.031Z,17.47
2018-07-04T13:11:36.762Z,16.73
2018-07-04T13:14:16.379Z,15.47
2018-07-04T13:16:55.918Z,13.03
2018-07-04T13:19:35.650Z,15.60
2018-07-04T13:22:15.918Z,15.00
2018-07-04T13:24:55.278Z,16.20
2018-07-04T13:27:34.834Z,12.33
2018-07-04T13:30:14.255Z,14.23
2018-07-04T13:32:53.841Z,13.17
2018-07-04T13:35:33.362Z,13.00
2018-07-04T13:38:12.788Z,14.60
2018-07-04T13:40:52.343Z,15.47
2018-07-04T13:43:31.898Z,13.73
2018-07-04T13:46:11.331Z,14.20
2018-07-04T13:48:50.826Z,13.00
2018-07-04T13:51:30.263Z,13.90
2018-07-04T13:54:09.726Z,12.77
2018-07-04T13:56:49.265Z,12.07
2018-07-04T13:59:28.903Z,12.73
2018-07-04T14:02:08.351Z,11.40
2018-07-04T14:04:47.814Z,12.50
2018-07-04T14:07:27.219Z,11.10
2018-07-04T14:10:06.676Z,10.90
2018-07-04T14:12:46.028Z,12.10
2018-07-04T14:15:25.802Z,11.80
2018-07-04T14:18:05.246Z,8.70
2018-07-04T14:20:44.831Z,9.70
2018-07-04T14:23:24.259Z,9.20
2018-07-04T14:26:03.791Z,10.63
2018-07-04T14:28:43.171Z,10.67
2018-07-04T14:31:22.651Z,10.10
2018-07-04T14:34:02.196Z,10.20
2018-07-04T14:36:41.664Z,10.13
2018-07-04T14:39:21.192Z,9.03
2018-07-04T14:42:00.692Z,10.30
2018-07-04T14:44:40.226Z,11.00
2018-07-04T14:47:19.710Z,10.80
2018-07-04T14:49:59.256Z,10.33
2018-07-04T14:52:38.795Z,11.50
2018-07-04T14:55:18.346Z,11.80
2018-07-04T14:57:57.902Z,13.00
2018-07-04T15:00:37.441Z,11.47
2018-07-04T15:03:16.955Z,11.43
2018-07-04T15:05:56.455Z,11.10
2018-07-04T15:08:35.925Z,11.10
2018-07-04T15:11:15.685Z,9.63
2018-07-04T15:13:55.114Z,9.13
2018-07-04T15:16:34.667Z,8.60
2018-07-04T15:19:14.235Z,7.30
2018-07-04T15:21:53.734Z,7.83
2018-07-04T15:24:33.202Z,7.90
2018-07-04T15:27:12.646Z,8.50
2018-07-04T15:29:52.159Z,10.10
2018-07-04T15:32:31.700Z,9.00
2018-07-04T15:35:11.468Z,8.50
2018-07-04T15:37:50.920Z,9.00
2018-07-04T15:40:30.426Z,9.10
2018-07-04T15:43:09.826Z,9.70
2018-07-04T15:45:49.185Z,9.67
2018-07-04T15:48:28.782Z,8.77
2018-07-04T15:51:08.199Z,8.77
2018-07-04T15:53:47.752Z,9.07
2018-07-04T15:56:27.498Z,8.23
2018-07-04T15:59:06.987Z,7.40
2018-07-04T16:01:46.458Z,8.00
2018-07-04T16:04:25.923Z,7.30
2018-07-04T16:07:05.574Z,7.50
2018-07-04T16:09:45.114Z,7.60
2018-07-04T16:12:24.608Z,6.80
2018-07-04T16:15:04.175Z,7.23
2018-07-04T16:17:43.660Z,7.40
2018-07-04T16:20:23.081Z,7.73
2018-07-04T16:23:02.591Z,9.00
2018-07-04T16:25:42.103Z,9.47
2018-07-04T16:28:21.760Z,9.20
2018-07-04T16:31:01.307Z,10.37
2018-07-04T16:33:40.818Z,12.80
2018-07-04T16:36:20.238Z,11.20
2018-07-04T16:38:59.726Z,8.90
2018-07-04T16:41:39.231Z,10.77
2018-07-04T16:44:18.695Z,9.70
2018-07-04T16:46:58.254Z,8.27
2018-07-04T16:49:37.743Z,9.13
2018-07-04T16:52:17.376Z,8.50
2018-07-04T16:54:56.875Z,10.37
2018-07-04T16:57:36.607Z,8.70
2018-07-04T17:00:16.107Z,9.90
2018-07-04T17:02:55.560Z,9.10
2018-07-04T17:05:34.985Z,9.13
2018-07-04T17:08:14.423Z,9.30
2018-07-04T17:10:53.858Z,10.30
2018-07-04T17:13:33.306Z,10.23
2018-07-04T17:16:12.755Z,9.60
2018-07-04T17:18:52.262Z,9.77
2018-07-04T17:21:31.763Z,9.10
2018-07-04T17:24:11.167Z,10.00
2018-07-04T17:26:50.593Z,11.20
2018-07-04T17:29:30.057Z,10.70
2018-07-04T17:32:09.554Z,10.80
2018-07-04T17:34:48.967Z,11.83
2018-07-04T17:37:28.459Z,10.27
2018-07-04T17:40:07.967Z,10.10
2018-07-04T17:42:47.615Z,10.33
2018-07-04T17:45:27.290Z,9.83
2018-07-04T17:48:06.794Z,10.97
2018-07-04T17:50:46.425Z,9.77
2018-07-04T17:53:26.027Z,10.57
2018-07-04T17:56:05.766Z,10.70
2018-07-04T17:58:45.270Z,12.27
2018-07-04T18:01:24.745Z,11.03
2018-07-04T18:04:04.088Z,11.30
2018-07-04T18:06:43.459Z,13.00
2018-07-04T18:09:23.016Z,11.20
2018-07-04T18:12:02.397Z,12.60
2018-07-04T18:14:42.055Z,12.57
2018-07-04T18:17:21.583Z,12.33
2018-07-04T18:20:01.030Z,12.83
2018-07-04T18:22:40.588Z,12.00
2018-07-04T18:25:20.044Z,13.07
2018-07-04T18:27:59.470Z,11.90
2018-07-04T18:30:38.927Z,13.07
2018-07-04T18:33:18.460Z,12.63
2018-07-04T18:35:58.060Z,11.63
2018-07-04T18:38:37.620Z,11.13
2018-07-04T18:41:17.122Z,12.90
2018-07-04T18:43:56.691Z,12.20
2018-07-04T18:46:36.587Z,12.07
2018-07-04T18:49:16.271Z,12.57
2018-07-04T18:51:55.767Z,12.60
2018-07-04T18:54:35.215Z,12.70
2018-07-04T18:57:14.667Z,12.93
2018-07-04T18:59:54.479Z,13.17
2018-07-04T19:02:33.907Z,13.47
2018-07-04T19:05:13.559Z,16.03
2018-07-04T19:07:53.060Z,13.60
2018-07-04T19:10:32.558Z,12.80
2018-07-04T19:13:12.010Z,14.33
2018-07-04T19:15:51.751Z,13.47
2018-07-04T19:18:31.375Z,13.67
2018-07-04T19:21:10.852Z,13.40
2018-07-04T19:23:50.322Z,13.50
2018-07-04T19:26:30.070Z,13.33
2018-07-04T19:29:09.505Z,13.13
2018-07-04T19:31:49.071Z,12.40
2018-07-04T19:34:28.595Z,13.37
2018-07-04T19:37:08.095Z,13.20
2018-07-04T19:39:47.503Z,16.80
2018-07-04T19:42:26.943Z,15.37
2018-07-04T19:45:06.367Z,15.03
2018-07-04T19:47:45.910Z,16.67
2018-07-04T19:50:25.523Z,14.83
2018-07-04T19:53:04.918Z,15.53
2018-07-04T19:55:44.411Z,13.60
2018-07-04T19:58:23.995Z,15.00
2018-07-04T20:01:03.468Z,15.33
2018-07-04T20:03:42.992Z,14.20
2018-07-04T20:06:22.470Z,12.20
2018-07-04T20:09:06.960Z,13.90
2018-07-04T20:11:46.655Z,14.00
2018-07-04T20:14:26.260Z,13.93
2018-07-04T20:17:05.798Z,16.00
2018-07-04T20:19:45.262Z,15.10
2018-07-04T20:22:24.746Z,13.73
2018-07-04T20:25:04.287Z,14.70
2018-07-04T20:27:43.847Z,13.23
2018-07-04T20:30:16.580Z,14.63
2018-07-04T20:32:56.015Z,15.23
2018-07-04T20:35:35.498Z,15.80
2018-07-04T20:38:15.043Z,15.50
2018-07-04T20:40:54.630Z,17.03
2018-07-04T20:43:34.523Z,18.20
2018-07-04T20:46:13.946Z,20.10
2018-07-04T20:48:53.446Z,19.70
2018-07-04T20:51:33.028Z,18.60
2018-07-04T20:54:12.489Z,16.93
2018-07-04T20:56:51.913Z,18.53
2018-07-04T20:59:31.319Z,19.93
2018-07-04T21:02:10.804Z,19.73
2018-07-04T21:04:50.362Z,20.83
2018-07-04T21:07:29.841Z,20.20
2018-07-04T21:10:09.500Z,19.97
2018-07-04T21:12:48.949Z,20.37
2018-07-04T21:15:28.735Z,19.70
2018-07-04T21:18:08.262Z,19.87
2018-07-04T21:20:47.666Z,20.00
2018-07-04T21:23:27.191Z,21.30
2018-07-04T21:26:06.659Z,22.90
2018-07-04T21:28:46.170Z,20.90
2018-07-04T21:31:25.676Z,20.10
2018-07-04T21:34:05.210Z,20.20
2018-07-04T21:36:44.683Z,19.27
2018-07-04T21:39:24.183Z,19.60
2018-07-04T21:42:03.768Z,17.73
2018-07-04T21:44:43.172Z,18.53
2018-07-04T21:47:22.651Z,17.97
2018-07-04T21:50:02.078Z,18.00
2018-07-04T21:52:41.509Z,21.70
2018-07-04T21:55:21.004Z,18.47
2018-07-04T21:58:00.687Z,20.23
2018-07-04T22:00:40.339Z,18.67
2018-07-04T22:03:19.788Z,22.40
2018-07-04T22:05:59.304Z,20.57
2018-07-04T22:08:38.761Z,20.87
2018-07-04T22:11:18.187Z,21.10
2018-07-04T22:13:57.600Z,17.90
2018-07-04T22:16:37.251Z,17.30
2018-07-04T22:19:22.110Z,16.97
2018-07-04T22:22:01.654Z,17.70
2018-07-04T22:24:41.195Z,17.30
2018-07-04T22:44:24.970Z,16.30
2018-07-04T22:47:04.383Z,16.40
2018-07-04T22:49:43.962Z,16.00
2018-07-04T22:52:23.443Z,16.40
2018-07-04T22:55:02.963Z,15.40
2018-07-04T22:57:42.418Z,16.57
2018-07-04T23:00:21.887Z,17.80
2018-07-04T23:03:01.543Z,15.80
2018-07-04T23:05:40.991Z,16.23
2018-07-04T23:08:20.364Z,16.90
2018-07-04T23:10:59.743Z,17.30
2018-07-04T23:13:39.184Z,17.60
2018-07-04T23:16:18.654Z,16.00
2018-07-04T23:18:58.053Z,16.00
2018-07-04T23:21:37.502Z,17.67
2018-07-04T23:24:17.030Z,18.03
2018-07-04T23:26:56.590Z,17.93
2018-07-04T23:29:36.046Z,20.03
2018-07-04T23:32:15.526Z,17.13
2018-07-04T23:34:55.055Z,18.20
2018-07-04T23:37:34.511Z,17.23
2018-07-04T23:40:13.975Z,18.80
2018-07-04T23:42:53.566Z,19.23
2018-07-04T23:45:33.180Z,16.60
2018-07-04T23:48:12.723Z,16.80
2018-07-04T23:50:52.239Z,16.93
2018-07-04T23:53:31.735Z,17.43
2018-07-04T23:56:11.208Z,17.13
2018-07-04T23:58:50.766Z,17.17
